createdAt,value
2022-09-17T00:00:43.080Z,3.70
2022-09-17T00:03:10.003Z,3.10
2022-09-17T00:05:40.110Z,3.67
2022-09-17T00:08:07.589Z,3.47
2022-09-17T00:10:38.550Z,3.50
2022-09-17T00:13:05.985Z,3.67
2022-09-17T00:15:32.441Z,4.10
2022-09-17T00:17:59.113Z,4.68
2022-09-17T00:20:26.323Z,5.07
2022-09-17T00:22:53.780Z,4.93
2022-09-17T00:25:20.693Z,4.88
2022-09-17T00:27:47.144Z,4.85
2022-09-17T00:30:13.812Z,4.82
2022-09-17T00:32:40.205Z,4.35
2022-09-17T00:35:07.194Z,4.70
2022-09-17T00:37:33.579Z,4.90
2022-09-17T00:40:00.054Z,4.53
2022-09-17T00:42:26.544Z,4.68
2022-09-17T00:44:55.160Z,4.13
2022-09-17T00:47:34.341Z,4.45
2022-09-17T00:50:08.127Z,4.00
2022-09-17T00:52:41.569Z,4.13
2022-09-17T00:55:13.487Z,3.78
2022-09-17T00:57:40.924Z,4.32
2022-09-17T01:00:09.257Z,4.57
2022-09-17T01:02:35.986Z,4.15
2022-09-17T01:05:02.480Z,4.07
2022-09-17T01:07:47.937Z,3.60
2022-09-17T01:10:20.913Z,4.40
2022-09-17T01:13:03.365Z,4.28
2022-09-17T01:15:47.966Z,4.18
2022-09-17T01:18:22.763Z,4.18
2022-09-17T01:20:55.218Z,4.25
2022-09-17T01:23:55.503Z,4.30
2022-09-17T01:26:32.484Z,3.70
2022-09-17T01:29:43.545Z,4.55
2022-09-17T01:32:15.630Z,4.20
2022-09-17T01:34:52.375Z,4.57
2022-09-17T01:37:30.711Z,4.25
2022-09-17T01:40:32.354Z,3.88
2022-09-17T01:43:09.526Z,4.13
2022-09-17T01:45:47.326Z,4.32
2022-09-17T01:48:21.587Z,3.85
2022-09-17T01:51:11.128Z,4.63
2022-09-17T01:53:54.088Z,4.47
2022-09-17T01:56:24.855Z,4.35
2022-09-17T01:59:02.525Z,3.70
2022-09-17T02:01:32.692Z,3.63
2022-09-17T02:04:09.550Z,3.97
2022-09-17T02:06:42.384Z,3.53
2022-09-17T02:09:18.424Z,3.80
2022-09-17T02:11:51.000Z,3.80
2022-09-17T02:16:52.483Z,3.70
2022-09-17T02:19:22.842Z,3.92
2022-09-17T02:22:00.818Z,4.13
2022-09-17T02:24:37.810Z,3.80
2022-09-17T02:27:07.858Z,4.47
2022-09-17T02:29:37.181Z,3.72
2022-09-17T02:32:03.996Z,3.75
2022-09-17T02:34:30.936Z,3.35
2022-09-17T02:36:59.452Z,3.17
2022-09-17T02:39:26.425Z,3.63
2022-09-17T02:42:22.502Z,3.15
2022-09-17T02:45:04.128Z,3.78
2022-09-17T02:47:48.783Z,3.33
2022-09-17T02:50:37.021Z,3.92
2022-09-17T02:53:22.179Z,2.88
2022-09-17T02:56:04.142Z,3.40
2022-09-17T02:58:53.746Z,3.70
2022-09-17T03:01:45.217Z,3.75
2022-09-17T03:04:15.479Z,3.35
2022-09-17T03:06:43.989Z,3.65
2022-09-17T03:09:10.444Z,3.05
2022-09-17T03:11:37.070Z,3.45
2022-09-17T03:14:04.479Z,3.80
2022-09-17T03:16:30.930Z,3.35
2022-09-17T03:18:57.317Z,3.03
2022-09-17T03:21:23.808Z,3.03
2022-09-17T03:23:50.220Z,4.05
2022-09-17T03:26:16.713Z,3.38
2022-09-17T03:28:43.077Z,3.92
2022-09-17T03:31:09.568Z,3.28
2022-09-17T03:33:36.059Z,3.50
2022-09-17T03:36:02.500Z,3.55
2022-09-17T03:38:28.940Z,2.83
2022-09-17T03:41:02.834Z,3.28
2022-09-17T03:43:29.585Z,3.13
2022-09-17T03:45:56.245Z,3.20
2022-09-17T03:48:23.088Z,3.50
2022-09-17T03:50:49.648Z,3.53
2022-09-17T03:53:16.703Z,3.00
2022-09-17T03:55:43.093Z,3.05
2022-09-17T03:58:09.576Z,3.40
2022-09-17T04:00:38.849Z,2.97
2022-09-17T04:03:05.830Z,3.40
2022-09-17T04:05:32.360Z,3.58
2022-09-17T04:07:58.747Z,2.90
2022-09-17T04:10:25.351Z,3.20
2022-09-17T04:12:51.723Z,3.28
2022-09-17T04:15:18.117Z,2.70
2022-09-17T04:17:44.682Z,3.25
2022-09-17T04:20:11.095Z,3.15
2022-09-17T04:22:37.627Z,2.67
2022-09-17T04:25:04.203Z,3.22
2022-09-17T04:27:30.727Z,3.42
2022-09-17T04:29:57.141Z,2.55
2022-09-17T04:32:23.532Z,2.85
2022-09-17T04:34:49.948Z,3.17
2022-09-17T04:37:16.902Z,3.28
2022-09-17T04:39:43.263Z,2.97
2022-09-17T04:42:09.672Z,3.15
2022-09-17T04:44:36.086Z,2.75
2022-09-17T04:47:02.467Z,2.45
2022-09-17T04:49:30.943Z,3.17
2022-09-17T04:51:57.593Z,3.00
2022-09-17T04:54:24.235Z,2.72
2022-09-17T04:56:50.755Z,2.90
2022-09-17T04:59:17.181Z,3.10
2022-09-17T05:01:43.805Z,2.55
2022-09-17T05:04:10.363Z,2.45
2022-09-17T05:06:36.910Z,2.28
2022-09-17T05:09:03.475Z,3.30
2022-09-17T05:11:29.880Z,2.78
2022-09-17T05:13:56.397Z,2.97
2022-09-17T05:16:22.986Z,3.40
2022-09-17T05:18:51.579Z,2.72
2022-09-17T05:21:18.739Z,3.08
2022-09-17T05:23:45.189Z,3.42
2022-09-17T05:26:11.609Z,3.35
2022-09-17T05:28:38.079Z,2.28
2022-09-17T05:31:04.591Z,3.08
2022-09-17T05:33:31.181Z,2.50
2022-09-17T05:35:57.613Z,2.60
2022-09-17T05:38:24.147Z,3.20
2022-09-17T05:40:50.596Z,3.42
2022-09-17T05:43:17.194Z,3.17
2022-09-17T05:45:44.102Z,2.72
2022-09-17T05:48:13.405Z,3.22
2022-09-17T05:50:40.198Z,4.05
2022-09-17T05:53:10.192Z,2.80
2022-09-17T05:55:36.747Z,3.03
2022-09-17T05:58:14.093Z,3.20
2022-09-17T06:00:42.539Z,2.67
2022-09-17T06:03:13.510Z,2.65
2022-09-17T06:05:40.193Z,2.67
2022-09-17T06:08:07.034Z,2.83
2022-09-17T06:10:37.051Z,3.35
2022-09-17T06:13:03.548Z,2.80
2022-09-17T06:15:30.147Z,2.75
2022-09-17T06:17:56.565Z,4.00
2022-09-17T06:20:23.017Z,2.80
2022-09-17T06:22:49.386Z,2.97
2022-09-17T06:25:15.932Z,2.65
2022-09-17T06:27:42.462Z,3.03
2022-09-17T06:30:11.005Z,3.38
2022-09-17T06:32:37.417Z,2.85
2022-09-17T06:35:03.897Z,2.53
2022-09-17T06:37:32.370Z,2.53
2022-09-17T06:39:59.422Z,3.03
2022-09-17T06:42:29.263Z,2.50
2022-09-17T06:44:55.643Z,2.30
2022-09-17T06:47:24.433Z,2.50
2022-09-17T06:49:51.622Z,2.72
2022-09-17T06:52:17.975Z,2.92
2022-09-17T06:54:44.431Z,2.70
2022-09-17T06:57:10.811Z,2.95
2022-09-17T06:59:37.265Z,2.75
2022-09-17T07:02:03.781Z,2.83
2022-09-17T07:04:30.265Z,2.78
2022-09-17T07:06:56.735Z,2.35
2022-09-17T07:09:23.205Z,3.25
2022-09-17T07:11:49.574Z,1.85
2022-09-17T07:14:16.054Z,2.88
2022-09-17T07:16:42.474Z,2.08
2022-09-17T07:19:09.137Z,2.05
2022-09-17T07:21:35.731Z,2.40
2022-09-17T07:24:02.271Z,2.45
2022-09-17T07:26:28.754Z,2.38
2022-09-17T07:28:55.144Z,2.25
2022-09-17T07:31:21.608Z,2.47
2022-09-17T07:33:48.147Z,1.83
2022-09-17T07:36:17.668Z,2.17
2022-09-17T07:38:44.145Z,2.60
2022-09-17T07:41:15.506Z,2.75
2022-09-17T07:43:42.639Z,1.95
2022-09-17T07:46:13.962Z,2.00
2022-09-17T07:48:40.796Z,1.60
2022-09-17T07:51:07.198Z,1.80
2022-09-17T07:53:33.663Z,1.75
2022-09-17T07:56:00.746Z,1.77
2022-09-17T07:58:32.364Z,2.20
2022-09-17T08:01:06.861Z,2.30
2022-09-17T08:03:33.488Z,1.75
2022-09-17T08:06:08.287Z,2.53
2022-09-17T08:08:36.015Z,1.90
2022-09-17T08:11:03.831Z,2.53
2022-09-17T08:13:30.724Z,2.15
2022-09-17T08:16:06.503Z,2.13
2022-09-17T08:18:33.535Z,2.00
2022-09-17T08:21:00.851Z,2.33
2022-09-17T08:23:27.864Z,2.10
2022-09-17T08:25:55.531Z,1.90
2022-09-17T08:28:22.981Z,2.20
2022-09-17T08:30:50.395Z,2.90
2022-09-17T08:33:17.581Z,1.98
2022-09-17T08:35:54.171Z,2.78
2022-09-17T08:38:21.279Z,2.33
2022-09-17T08:41:18.086Z,2.28
2022-09-17T08:44:15.295Z,2.35
2022-09-17T08:46:47.406Z,2.30
2022-09-17T08:49:24.062Z,2.50
2022-09-17T08:52:03.365Z,1.90
2022-09-17T08:54:48.385Z,2.45
2022-09-17T08:57:39.299Z,2.40
2022-09-17T09:00:16.188Z,2.28
2022-09-17T09:03:05.155Z,2.35
2022-09-17T09:05:45.339Z,2.25
2022-09-17T09:08:37.013Z,2.00
2022-09-17T09:11:07.306Z,1.98
2022-09-17T09:13:38.665Z,1.60
2022-09-17T09:16:15.552Z,1.98
2022-09-17T09:18:42.302Z,1.92
2022-09-17T09:21:27.236Z,2.00
2022-09-17T09:23:58.993Z,2.20
2022-09-17T09:26:45.173Z,1.93
2022-09-17T09:29:29.845Z,2.38
2022-09-17T09:32:16.561Z,2.38
2022-09-17T09:34:43.900Z,1.80
2022-09-17T09:37:16.709Z,1.58
2022-09-17T09:39:46.216Z,2.00
2022-09-17T09:42:39.773Z,1.40
2022-09-17T09:45:18.250Z,1.73
2022-09-17T09:47:47.887Z,1.65
2022-09-17T09:50:48.412Z,1.52
2022-09-17T09:53:29.001Z,1.35
2022-09-17T09:56:16.199Z,1.73
2022-09-17T09:58:42.891Z,1.45
2022-09-17T10:01:20.305Z,1.48
2022-09-17T10:03:48.462Z,1.50
2022-09-17T10:06:15.402Z,1.42
2022-09-17T10:08:51.951Z,1.40
2022-09-17T10:11:26.615Z,1.52
2022-09-17T10:13:53.070Z,1.67
2022-09-17T10:16:21.769Z,1.67
2022-09-17T10:18:49.624Z,1.55
2022-09-17T10:21:26.599Z,1.48
2022-09-17T10:23:53.003Z,1.40
2022-09-17T10:26:22.579Z,1.55
2022-09-17T10:28:51.621Z,1.25
2022-09-17T10:31:18.824Z,1.58
2022-09-17T10:33:59.107Z,1.30
2022-09-17T10:36:45.133Z,1.55
2022-09-17T10:39:26.762Z,1.60
2022-09-17T10:41:58.643Z,1.60
2022-09-17T10:44:27.625Z,1.38
2022-09-17T10:46:55.768Z,1.30
2022-09-17T10:49:42.651Z,1.40
2022-09-17T10:52:12.801Z,1.20
2022-09-17T10:54:58.187Z,1.05
2022-09-17T10:58:00.789Z,1.67
2022-09-17T11:00:30.253Z,1.23
2022-09-17T11:03:21.569Z,1.55
2022-09-17T11:06:24.436Z,1.45
2022-09-17T11:09:19.532Z,1.40
2022-09-17T11:12:19.635Z,1.33
2022-09-17T11:15:03.557Z,1.50
2022-09-17T11:17:53.744Z,1.10
2022-09-17T11:21:03.480Z,1.40
2022-09-17T11:23:41.606Z,1.20
2022-09-17T11:26:16.650Z,1.27
2022-09-17T11:29:11.002Z,1.33
2022-09-17T11:31:46.307Z,1.40
2022-09-17T11:34:34.944Z,1.33
2022-09-17T11:37:10.491Z,1.13
2022-09-17T11:39:41.271Z,1.10
2022-09-17T11:42:12.518Z,1.17
2022-09-17T11:44:43.856Z,1.10
2022-09-17T11:47:23.746Z,1.10
2022-09-17T11:50:17.309Z,1.70
2022-09-17T11:52:46.469Z,1.92
2022-09-17T11:55:23.348Z,1.17
2022-09-17T11:57:52.953Z,1.30
2022-09-17T12:00:20.519Z,1.02
2022-09-17T12:03:01.775Z,1.20
2022-09-17T12:05:52.301Z,1.05
2022-09-17T12:08:39.943Z,1.10
2022-09-17T12:11:27.932Z,0.90
2022-09-17T12:13:57.084Z,1.23
2022-09-17T12:16:29.267Z,1.63
2022-09-17T12:19:16.426Z,1.15
2022-09-17T12:21:46.695Z,1.52
2022-09-17T12:24:23.557Z,0.98
2022-09-17T12:27:04.639Z,1.25
2022-09-17T12:30:00.596Z,1.50
2022-09-17T12:32:27.203Z,1.10
2022-09-17T12:35:12.323Z,1.25
2022-09-17T12:37:56.987Z,1.27
2022-09-17T12:40:42.672Z,1.15
2022-09-17T12:43:28.781Z,1.23
2022-09-17T12:46:16.967Z,1.60
2022-09-17T12:49:07.302Z,1.10
2022-09-17T12:51:48.703Z,1.17
2022-09-17T12:54:22.225Z,1.70
2022-09-17T12:57:01.432Z,1.38
2022-09-17T12:59:33.056Z,1.35
2022-09-17T13:02:11.536Z,1.10
2022-09-17T13:05:15.575Z,1.20
2022-09-17T13:08:10.203Z,1.63
2022-09-17T13:10:54.854Z,1.35
2022-09-17T13:13:27.256Z,1.33
2022-09-17T13:16:21.184Z,1.65
2022-09-17T13:19:17.243Z,1.50
2022-09-17T13:22:00.264Z,1.58
2022-09-17T13:26:55.325Z,1.48
2022-09-17T13:29:43.434Z,1.10
2022-09-17T13:32:10.071Z,1.20
2022-09-17T13:34:36.514Z,1.15
2022-09-17T13:37:18.128Z,1.77
2022-09-17T13:39:51.596Z,1.30
2022-09-17T13:42:29.582Z,1.20
2022-09-17T13:45:09.996Z,0.95
2022-09-17T13:47:56.562Z,1.08
2022-09-17T13:50:43.606Z,0.90
2022-09-17T13:53:16.009Z,1.13
2022-09-17T13:55:45.096Z,1.00
2022-09-17T13:58:23.604Z,1.30
2022-09-17T14:00:56.305Z,1.40
2022-09-17T14:03:28.857Z,1.08
2022-09-17T14:08:30.939Z,1.40
2022-09-17T14:10:59.657Z,1.40
2022-09-17T14:13:27.418Z,1.20
2022-09-17T14:15:56.146Z,1.40
2022-09-17T14:18:42.939Z,1.20
2022-09-17T14:21:09.420Z,1.42
2022-09-17T14:23:47.455Z,1.20
2022-09-17T14:26:26.059Z,1.50
2022-09-17T14:29:03.506Z,1.33
2022-09-17T14:31:36.034Z,1.45
2022-09-17T14:36:35.756Z,1.65
2022-09-17T14:39:02.997Z,1.20
2022-09-17T14:41:35.466Z,1.33
2022-09-17T14:44:14.874Z,1.42
2022-09-17T14:47:01.513Z,1.38
2022-09-17T14:49:34.528Z,1.20
2022-09-17T14:52:05.847Z,1.70
2022-09-17T14:54:36.254Z,1.90
2022-09-17T14:57:09.023Z,1.50
2022-09-17T14:59:42.939Z,1.80
2022-09-17T15:02:41.425Z,1.45
2022-09-17T15:05:39.305Z,1.60
2022-09-17T15:08:13.121Z,1.50
2022-09-17T15:10:48.048Z,1.80
2022-09-17T15:13:21.509Z,1.42
2022-09-17T15:15:58.489Z,1.70
2022-09-17T15:18:33.023Z,1.75
2022-09-17T15:21:00.894Z,1.52
2022-09-17T15:23:28.344Z,1.60
2022-09-17T15:25:56.844Z,1.63
2022-09-17T15:28:31.067Z,1.50
2022-09-17T15:30:57.525Z,1.67
2022-09-17T15:33:24.430Z,2.10
2022-09-17T15:36:07.798Z,1.40
2022-09-17T15:38:34.650Z,1.77
2022-09-17T15:41:20.676Z,1.98
2022-09-17T15:43:47.400Z,1.60
2022-09-17T15:46:26.833Z,2.13
2022-09-17T15:48:58.817Z,1.75
2022-09-17T15:51:37.532Z,1.75
2022-09-17T15:54:05.476Z,1.75
2022-09-17T15:56:36.991Z,1.52
2022-09-17T15:59:06.284Z,1.92
2022-09-17T16:01:32.646Z,1.90
2022-09-17T16:03:59.003Z,1.92
2022-09-17T16:06:25.434Z,1.60
2022-09-17T16:08:52.920Z,1.40
2022-09-17T16:11:21.974Z,1.20
2022-09-17T16:13:49.528Z,1.52
2022-09-17T16:16:18.495Z,1.88
2022-09-17T16:18:45.119Z,1.98
2022-09-17T16:21:13.123Z,1.30
2022-09-17T16:23:40.067Z,1.52
2022-09-17T16:26:10.789Z,2.03
2022-09-17T16:28:37.226Z,2.28
2022-09-17T16:31:03.691Z,1.98
2022-09-17T16:33:30.167Z,1.67
2022-09-17T16:35:57.682Z,1.50
2022-09-17T16:38:24.384Z,1.30
2022-09-17T16:40:51.723Z,1.60
2022-09-17T16:43:18.614Z,1.33
2022-09-17T16:45:58.625Z,1.70
2022-09-17T16:48:25.020Z,1.20
2022-09-17T16:50:51.394Z,1.48
2022-09-17T16:53:17.828Z,1.55
2022-09-17T16:55:44.203Z,1.30
2022-09-17T16:58:10.612Z,1.70
2022-09-17T17:00:37.355Z,1.42
2022-09-17T17:03:05.022Z,1.80
2022-09-17T17:05:32.368Z,1.80
2022-09-17T17:08:01.210Z,1.92
2022-09-17T17:10:29.668Z,1.20
2022-09-17T17:12:56.258Z,1.58
2022-09-17T17:15:23.597Z,1.88
2022-09-17T17:17:50.034Z,1.35
2022-09-17T17:20:16.821Z,1.75
2022-09-17T17:22:44.121Z,2.05
2022-09-17T17:25:12.171Z,2.00
2022-09-17T17:27:38.894Z,1.80
2022-09-17T17:30:07.131Z,1.70
2022-09-17T17:32:34.748Z,1.92
2022-09-17T17:35:01.328Z,1.55
2022-09-17T17:37:27.818Z,1.80
2022-09-17T17:39:54.669Z,1.63
2022-09-17T17:42:21.399Z,1.90
2022-09-17T17:44:47.810Z,1.77
2022-09-17T17:47:14.444Z,1.90
2022-09-17T17:49:40.854Z,2.35
2022-09-17T17:52:07.248Z,2.40
2022-09-17T17:54:34.030Z,1.83
2022-09-17T17:57:00.426Z,2.10
2022-09-17T17:59:27.005Z,2.85
2022-09-17T18:01:53.430Z,2.50
2022-09-17T18:04:19.935Z,2.10
2022-09-17T18:06:48.076Z,2.33
2022-09-17T18:09:17.713Z,1.88
2022-09-17T18:11:44.135Z,1.90
2022-09-17T18:14:12.583Z,1.98
2022-09-17T18:16:39.167Z,2.25
2022-09-17T18:19:05.814Z,2.20
2022-09-17T18:21:32.359Z,2.10
2022-09-17T18:23:58.986Z,1.75
2022-09-17T18:26:27.058Z,2.22
2022-09-17T18:28:53.668Z,1.83
2022-09-17T18:31:27.735Z,1.70
2022-09-17T18:34:05.070Z,1.50
2022-09-17T18:36:33.993Z,2.00
2022-09-17T18:39:53.327Z,1.70
2022-09-17T18:41:48.333Z,2.15
2022-09-17T18:44:15.032Z,2.03
2022-09-17T18:46:42.573Z,1.90
2022-09-17T18:49:09.122Z,2.20
2022-09-17T18:51:35.479Z,1.83
2022-09-17T18:54:03.114Z,1.88
2022-09-17T18:56:32.391Z,2.33
2022-09-17T18:59:03.253Z,2.05
2022-09-17T19:01:32.218Z,2.13
2022-09-17T19:03:59.145Z,2.45
2022-09-17T19:06:26.815Z,2.30
2022-09-17T19:08:55.509Z,2.53
2022-09-17T19:11:21.905Z,2.35
2022-09-17T19:13:51.245Z,1.92
2022-09-17T19:16:18.060Z,1.67
2022-09-17T19:18:44.793Z,2.28
2022-09-17T19:21:15.162Z,2.20
2022-09-17T19:23:49.459Z,1.95
2022-09-17T19:26:18.783Z,1.90
2022-09-17T19:28:45.392Z,2.50
2022-09-17T19:31:14.229Z,2.05
2022-09-17T19:33:40.708Z,2.20
2022-09-17T19:36:10.620Z,1.75
2022-09-17T19:38:37.438Z,2.00
2022-09-17T19:41:10.043Z,2.08
2022-09-17T19:46:05.629Z,1.55
2022-09-17T19:48:32.635Z,2.58
2022-09-17T19:50:59.119Z,2.20
2022-09-17T19:53:25.538Z,2.03
2022-09-17T19:55:52.013Z,2.25
2022-09-17T19:58:18.475Z,2.50
2022-09-17T20:00:44.843Z,2.10
2022-09-17T20:03:11.298Z,2.03
2022-09-17T20:05:37.855Z,2.63
2022-09-17T20:08:05.290Z,1.55
2022-09-17T20:10:36.339Z,1.45
2022-09-17T20:13:03.221Z,1.60
2022-09-17T20:15:29.731Z,1.50
2022-09-17T20:17:56.101Z,1.70
2022-09-17T20:20:28.202Z,1.42
2022-09-17T20:22:55.538Z,1.48
2022-09-17T20:25:24.009Z,2.00
2022-09-17T20:27:50.555Z,1.73
2022-09-17T20:30:17.000Z,1.70
2022-09-17T20:32:43.620Z,1.77
2022-09-17T20:35:10.011Z,1.70
2022-09-17T20:38:32.925Z,1.92
2022-09-17T20:40:22.793Z,1.48
2022-09-17T20:42:49.295Z,1.38
2022-09-17T20:45:15.696Z,1.60
2022-09-17T20:47:42.260Z,1.40
2022-09-17T20:50:08.708Z,1.77
2022-09-17T20:52:35.098Z,1.73
2022-09-17T20:55:01.530Z,1.50
2022-09-17T20:57:30.710Z,1.73
2022-09-17T21:00:00.751Z,1.90
2022-09-17T21:02:27.512Z,1.55
2022-09-17T21:04:54.077Z,1.73
2022-09-17T21:07:20.586Z,1.65
2022-09-17T21:09:47.304Z,1.92
2022-09-17T21:12:13.772Z,2.30
2022-09-17T21:14:40.174Z,1.92
2022-09-17T21:17:06.648Z,1.67
2022-09-17T21:19:33.166Z,1.60
2022-09-17T21:21:59.587Z,1.80
2022-09-17T21:24:26.144Z,1.92
2022-09-17T21:26:54.040Z,1.83
2022-09-17T21:29:20.830Z,1.60
2022-09-17T21:31:47.349Z,1.83
2022-09-17T21:34:14.267Z,1.50
2022-09-17T21:36:41.885Z,1.58
2022-09-17T21:39:14.486Z,1.50
2022-09-17T21:44:11.018Z,1.80
2022-09-17T21:46:38.216Z,1.50
2022-09-17T21:49:05.160Z,1.40
2022-09-17T21:51:38.827Z,1.60
2022-09-17T21:54:13.291Z,1.63
2022-09-17T21:56:39.678Z,1.55
2022-09-17T21:59:07.825Z,1.75
2022-09-17T22:01:40.877Z,1.70
2022-09-17T22:04:09.400Z,1.88
2022-09-17T22:06:36.080Z,1.83
2022-09-17T22:09:03.973Z,2.03
2022-09-17T22:11:35.548Z,1.83
2022-09-17T22:14:05.304Z,2.10
2022-09-17T22:16:33.413Z,2.00
2022-09-17T22:19:00.084Z,1.27
2022-09-17T22:21:27.775Z,1.75
2022-09-17T22:23:57.393Z,1.95
2022-09-17T22:26:25.260Z,2.08
2022-09-17T22:28:52.335Z,1.67
2022-09-17T22:31:19.188Z,1.85
2022-09-17T22:33:47.504Z,1.63
2022-09-17T22:36:19.247Z,1.80
2022-09-17T22:38:50.086Z,2.07
2022-09-17T22:41:20.860Z,1.60
2022-09-17T22:43:47.792Z,2.15
2022-09-17T22:46:22.691Z,1.85
2022-09-17T22:48:49.227Z,2.05
2022-09-17T22:51:16.070Z,2.50
2022-09-17T22:53:42.954Z,1.48
2022-09-17T22:56:11.901Z,1.45
2022-09-17T22:58:38.681Z,1.70
2022-09-17T23:01:07.375Z,1.83
2022-09-17T23:03:34.214Z,1.77
2022-09-17T23:06:02.017Z,1.80
2022-09-17T23:08:28.908Z,1.60
2022-09-17T23:10:55.701Z,1.80
2022-09-17T23:13:22.602Z,1.73
2022-09-17T23:15:49.173Z,1.85
2022-09-17T23:18:15.911Z,1.58
2022-09-17T23:20:42.456Z,1.48
2022-09-17T23:23:08.943Z,1.58
2022-09-17T23:25:35.428Z,1.70
2022-09-17T23:28:02.054Z,1.67
2022-09-17T23:30:28.791Z,1.48
2022-09-17T23:32:56.296Z,1.75
2022-09-17T23:35:23.751Z,1.50
2022-09-17T23:37:51.072Z,1.20
2022-09-17T23:40:18.387Z,1.83
2022-09-17T23:42:44.934Z,1.80
2022-09-17T23:45:11.461Z,1.90
2022-09-17T23:47:38.122Z,1.83
2022-09-17T23:50:04.960Z,1.58
2022-09-17T23:52:31.630Z,1.55
2022-09-17T23:54:58.655Z,1.40
2022-09-17T23:57:25.629Z,1.75
2022-09-17T23:59:52.100Z,1.73
